createdAt,value
2022-11-21T00:01:19.129Z,-1.00
2022-11-21T00:03:47.152Z,-0.90
2022-11-21T00:06:16.945Z,-0.90
2022-11-21T00:08:44.741Z,-0.80
2022-11-21T00:11:12.825Z,-0.70
2022-11-21T00:13:43.232Z,-0.70
2022-11-21T00:16:13.303Z,-0.60
2022-11-21T00:18:41.604Z,-0.60
2022-11-21T00:21:12.010Z,-0.50
2022-11-21T00:23:41.109Z,-0.50
2022-11-21T00:26:09.801Z,-0.50
2022-11-21T00:28:37.864Z,-0.50
2022-11-21T00:31:06.417Z,-0.40
2022-11-21T00:33:36.739Z,-0.40
2022-11-21T00:36:08.089Z,-0.40
2022-11-21T00:38:36.121Z,-0.30
2022-11-21T00:41:05.317Z,-0.30
2022-11-21T00:43:33.155Z,-0.40
2022-11-21T00:46:02.821Z,-0.30
2022-11-21T00:48:31.965Z,-0.30
2022-11-21T00:51:00.406Z,-0.30
2022-11-21T00:53:28.371Z,-0.30
2022-11-21T00:55:56.116Z,-0.30
2022-11-21T00:58:25.281Z,-0.30
2022-11-21T01:00:52.992Z,-0.30
2022-11-21T01:03:20.953Z,-0.30
2022-11-21T01:05:48.677Z,-0.30
2022-11-21T01:08:16.386Z,-0.30
2022-11-21T01:10:44.128Z,-0.40
2022-11-21T01:13:11.887Z,-0.40
2022-11-21T01:15:40.984Z,-0.40
2022-11-21T01:18:10.099Z,-0.30
2022-11-21T01:20:40.207Z,-0.30
2022-11-21T01:23:07.958Z,-0.30
2022-11-21T01:25:35.763Z,-0.30
2022-11-21T01:28:03.480Z,-0.30
2022-11-21T01:30:31.219Z,-0.40
2022-11-21T01:33:00.278Z,-0.30
2022-11-21T01:35:28.011Z,-0.30
2022-11-21T01:37:55.729Z,-0.30
2022-11-21T01:40:23.558Z,-0.30
2022-11-21T01:42:55.701Z,-0.30
2022-11-21T01:45:53.856Z,-0.30
2022-11-21T01:48:26.434Z,-0.30
2022-11-21T01:50:55.613Z,-0.30
2022-11-21T01:53:23.878Z,-0.30
2022-11-21T01:55:52.281Z,-0.30
2022-11-21T01:58:20.692Z,-0.20
2022-11-21T02:00:49.357Z,-0.30
2022-11-21T02:03:22.115Z,-0.20
2022-11-21T02:05:53.499Z,-0.20
2022-11-21T02:08:23.726Z,-0.20
2022-11-21T02:10:58.412Z,-0.20
2022-11-21T02:13:26.413Z,-0.20
2022-11-21T02:15:54.697Z,-0.20
2022-11-21T02:18:22.471Z,-0.20
2022-11-21T02:21:01.186Z,-0.20
2022-11-21T02:23:37.442Z,-0.20
2022-11-21T02:26:06.676Z,-0.20
2022-11-21T02:28:34.753Z,-0.20
2022-11-21T02:31:02.566Z,-0.20
2022-11-21T02:33:30.296Z,-0.20
2022-11-21T02:35:59.780Z,-0.20
2022-11-21T02:38:31.959Z,-0.10
2022-11-21T02:41:06.525Z,-0.10
2022-11-21T02:43:40.363Z,-0.10
2022-11-21T02:46:08.143Z,-0.10
2022-11-21T02:48:37.562Z,-0.10
2022-11-21T02:51:06.050Z,-0.10
2022-11-21T02:53:34.093Z,-0.10
2022-11-21T02:56:01.860Z,-0.10
2022-11-21T02:58:30.066Z,-0.10
2022-11-21T03:00:59.275Z,-0.10
2022-11-21T03:03:27.111Z,-0.10
2022-11-21T03:05:55.911Z,-0.10
2022-11-21T03:08:23.693Z,-0.10
2022-11-21T03:10:51.451Z,-0.10
2022-11-21T03:13:19.201Z,0.00
2022-11-21T03:15:47.054Z,-0.10
2022-11-21T03:18:16.214Z,-0.10
2022-11-21T03:20:43.981Z,-0.10
2022-11-21T03:23:11.804Z,-0.20
2022-11-21T03:25:39.630Z,-0.20
2022-11-21T03:28:07.350Z,-0.20
2022-11-21T03:30:35.149Z,-0.30
2022-11-21T03:33:02.868Z,-0.30
2022-11-21T03:35:32.008Z,-0.40
2022-11-21T03:37:59.796Z,-0.40
2022-11-21T03:40:27.547Z,-0.40
2022-11-21T03:42:55.352Z,-0.50
2022-11-21T03:45:23.252Z,-0.60
2022-11-21T03:47:50.983Z,-0.60
2022-11-21T03:50:20.939Z,-0.70
2022-11-21T03:52:52.041Z,-0.70
2022-11-21T03:55:19.849Z,-0.70
2022-11-21T03:57:47.592Z,-0.80
2022-11-21T04:00:16.804Z,-0.90
2022-11-21T04:02:44.563Z,-0.90
2022-11-21T04:05:12.307Z,-0.90
2022-11-21T04:07:40.376Z,-1.00
2022-11-21T04:10:10.472Z,-1.00
2022-11-21T04:12:38.249Z,-1.00
2022-11-21T04:15:12.166Z,-1.00
2022-11-21T04:17:41.303Z,-1.10
2022-11-21T04:20:10.078Z,-1.10
2022-11-21T04:22:37.840Z,-1.10
2022-11-21T04:25:06.331Z,-1.20
2022-11-21T04:27:35.447Z,-1.20
2022-11-21T04:30:03.206Z,-1.20
2022-11-21T04:32:30.937Z,-1.30
2022-11-21T04:34:58.626Z,-1.30
2022-11-21T04:37:26.407Z,-1.30
2022-11-21T04:39:54.209Z,-1.40
2022-11-21T04:42:22.012Z,-1.40
2022-11-21T04:44:51.121Z,-1.40
2022-11-21T04:47:18.836Z,-1.50
2022-11-21T04:49:46.548Z,-1.50
2022-11-21T04:52:14.308Z,-1.50
2022-11-21T04:54:42.106Z,-1.60
2022-11-21T04:57:10.013Z,-1.60
2022-11-21T04:59:37.765Z,-1.60
2022-11-21T05:02:06.871Z,-1.60
2022-11-21T05:04:34.645Z,-1.60
2022-11-21T05:07:02.517Z,-1.70
2022-11-21T05:09:30.337Z,-1.70
2022-11-21T05:12:15.670Z,-1.70
2022-11-21T05:14:43.445Z,-1.70
2022-11-21T05:17:12.709Z,-1.80
2022-11-21T05:19:40.489Z,-1.80
2022-11-21T05:22:08.513Z,-1.90
2022-11-21T05:24:36.550Z,-1.90
2022-11-21T05:27:04.520Z,-2.00
2022-11-21T05:29:32.250Z,-2.00
2022-11-21T05:31:59.976Z,-2.00
2022-11-21T05:34:29.467Z,-2.00
2022-11-21T05:36:57.731Z,-2.00
2022-11-21T05:39:26.133Z,-2.00
2022-11-21T05:41:57.234Z,-2.10
2022-11-21T05:44:28.528Z,-2.10
2022-11-21T05:46:56.503Z,-2.10
2022-11-21T05:49:24.233Z,-2.20
2022-11-21T05:51:53.304Z,-2.20
2022-11-21T05:54:20.997Z,-2.20
2022-11-21T05:56:48.793Z,-2.30
2022-11-21T05:59:16.698Z,-2.30
2022-11-21T06:02:02.106Z,-2.30
2022-11-21T06:04:30.240Z,-2.30
2022-11-21T06:06:59.869Z,-2.30
2022-11-21T06:09:27.848Z,-2.30
2022-11-21T06:11:55.573Z,-2.30
2022-11-21T06:14:23.286Z,-2.30
2022-11-21T06:16:51.542Z,-2.40
2022-11-21T06:19:19.295Z,-2.40
2022-11-21T06:21:47.021Z,-2.40
2022-11-21T06:24:21.809Z,-2.40
2022-11-21T06:26:50.062Z,-2.40
2022-11-21T06:29:17.931Z,-2.40
2022-11-21T06:31:45.688Z,-2.40
2022-11-21T06:34:13.396Z,-2.40
2022-11-21T06:36:41.138Z,-2.40
2022-11-21T06:39:09.066Z,-2.40
2022-11-21T06:41:38.281Z,-2.40
2022-11-21T06:44:08.843Z,-2.40
2022-11-21T06:46:36.664Z,-2.40
2022-11-21T06:49:04.506Z,-2.40
2022-11-21T06:51:32.477Z,-2.40
2022-11-21T06:54:00.544Z,-2.40
2022-11-21T06:56:30.163Z,-2.40
2022-11-21T06:58:59.972Z,-2.40
2022-11-21T07:01:28.334Z,-2.40
2022-11-21T07:03:56.506Z,-2.30
2022-11-21T07:06:24.888Z,-2.30
2022-11-21T07:09:17.528Z,-2.20
2022-11-21T07:11:42.191Z,-2.20
2022-11-21T07:14:10.399Z,-2.10
2022-11-21T07:16:38.258Z,-2.00
2022-11-21T07:19:06.450Z,-2.00
2022-11-21T07:21:34.220Z,-2.00
2022-11-21T07:24:02.363Z,-1.90
2022-11-21T07:26:34.181Z,-1.90
2022-11-21T07:29:02.145Z,-1.90
2022-11-21T07:31:31.303Z,-1.90
2022-11-21T07:33:59.091Z,-1.90
2022-11-21T07:36:27.017Z,-1.90
2022-11-21T07:38:54.833Z,-1.90
2022-11-21T07:41:22.638Z,-1.90
2022-11-21T07:43:50.404Z,-1.90
2022-11-21T07:46:18.094Z,-1.80
2022-11-21T07:48:47.137Z,-1.80
2022-11-21T07:51:16.514Z,-1.80
2022-11-21T07:53:44.461Z,-1.80
2022-11-21T07:56:12.190Z,-1.80
2022-11-21T07:58:40.618Z,-1.80
2022-11-21T08:01:08.778Z,-1.70
2022-11-21T08:03:36.472Z,-1.70
2022-11-21T08:06:06.047Z,-1.70
2022-11-21T08:08:33.789Z,-1.70
2022-11-21T08:11:05.627Z,-1.60
2022-11-21T08:13:33.458Z,-1.70
2022-11-21T08:16:03.883Z,-1.70
2022-11-21T08:18:31.867Z,-1.70
2022-11-21T08:21:02.174Z,-1.60
2022-11-21T08:23:31.517Z,-1.60
2022-11-21T08:25:59.875Z,-1.70
2022-11-21T08:28:27.743Z,-1.70
2022-11-21T08:30:55.782Z,-1.60
2022-11-21T08:33:23.591Z,-1.60
2022-11-21T08:35:51.321Z,-1.60
2022-11-21T08:38:19.136Z,-1.60
2022-11-21T08:41:11.050Z,-1.60
2022-11-21T08:43:41.149Z,-1.50
2022-11-21T08:46:08.920Z,-1.50
2022-11-21T08:48:36.647Z,-1.50
2022-11-21T08:51:04.437Z,-1.40
2022-11-21T08:53:32.279Z,-1.40
2022-11-21T08:56:04.242Z,-1.30
2022-11-21T08:58:32.369Z,-1.30
2022-11-21T09:01:00.318Z,-1.20
2022-11-21T09:03:31.118Z,-1.20
2022-11-21T09:06:01.299Z,-1.10
2022-11-21T09:08:30.561Z,-1.10
2022-11-21T09:10:59.086Z,-1.10
2022-11-21T09:13:28.629Z,-1.00
2022-11-21T09:16:19.110Z,-1.00
2022-11-21T09:18:48.236Z,-1.00
2022-11-21T09:21:16.755Z,-1.00
2022-11-21T09:23:44.539Z,-0.90
2022-11-21T09:26:12.772Z,-0.90
2022-11-21T09:28:42.289Z,-0.90
2022-11-21T09:31:10.034Z,-0.80
2022-11-21T09:33:37.901Z,-0.80
2022-11-21T09:36:06.090Z,-0.80
2022-11-21T09:38:34.033Z,-0.80
2022-11-21T09:41:31.623Z,-0.80
2022-11-21T09:44:07.798Z,-0.70
2022-11-21T09:46:44.583Z,-0.70
2022-11-21T09:49:14.897Z,-0.70
2022-11-21T09:51:45.992Z,-0.60
2022-11-21T09:54:19.515Z,-0.50
2022-11-21T09:56:48.847Z,-0.50
2022-11-21T09:59:30.941Z,-0.40
2022-11-21T10:01:58.736Z,-0.30
2022-11-21T10:04:28.182Z,-0.20
2022-11-21T10:07:04.117Z,-0.20
2022-11-21T10:09:46.376Z,-0.10
2022-11-21T10:12:40.319Z,0.00
2022-11-21T10:15:27.490Z,0.00
2022-11-21T10:18:09.864Z,0.10
2022-11-21T10:20:53.797Z,0.10
2022-11-21T10:23:39.995Z,0.10
2022-11-21T10:26:17.325Z,0.20
2022-11-21T10:28:52.723Z,0.20
2022-11-21T10:31:22.914Z,0.20
2022-11-21T10:33:52.828Z,0.30
2022-11-21T10:36:28.193Z,0.30
2022-11-21T10:39:02.012Z,0.30
2022-11-21T10:41:41.043Z,0.40
2022-11-21T10:44:34.895Z,0.40
2022-11-21T10:47:13.574Z,0.50
2022-11-21T10:49:42.367Z,0.50
2022-11-21T10:52:15.025Z,0.50
2022-11-21T10:55:06.069Z,0.60
2022-11-21T10:57:40.160Z,0.60
2022-11-21T11:00:21.786Z,0.60
2022-11-21T11:03:06.688Z,0.70
2022-11-21T11:05:36.136Z,0.70
2022-11-21T11:08:07.081Z,0.70
2022-11-21T11:10:36.790Z,0.80
2022-11-21T11:13:47.248Z,0.80
2022-11-21T11:16:17.547Z,0.80
2022-11-21T11:18:55.029Z,0.90
2022-11-21T11:21:25.217Z,0.90
2022-11-21T11:23:54.809Z,1.00
2022-11-21T11:26:26.304Z,1.00
2022-11-21T11:28:55.937Z,1.10
2022-11-21T11:31:24.417Z,1.10
2022-11-21T11:33:56.338Z,1.20
2022-11-21T11:36:35.030Z,1.20
2022-11-21T11:39:11.930Z,1.20
2022-11-21T11:42:24.292Z,1.30
2022-11-21T11:45:21.512Z,1.30
2022-11-21T11:47:54.740Z,1.30
2022-11-21T11:50:31.701Z,1.40
2022-11-21T11:53:05.165Z,1.40
2022-11-21T11:55:40.925Z,1.40
2022-11-21T11:58:18.078Z,1.40
2022-11-21T12:00:49.261Z,1.50
2022-11-21T12:03:22.317Z,1.50
2022-11-21T12:06:04.746Z,1.60
2022-11-21T12:08:43.173Z,1.60
2022-11-21T12:11:37.657Z,1.60
2022-11-21T12:14:13.096Z,1.60
2022-11-21T12:16:41.349Z,1.70
2022-11-21T12:19:15.207Z,1.60
2022-11-21T12:21:44.378Z,1.70
2022-11-21T12:24:12.863Z,1.70
2022-11-21T12:26:54.159Z,1.60
2022-11-21T12:29:42.638Z,1.60
2022-11-21T12:32:24.711Z,1.60
2022-11-21T12:35:07.214Z,1.60
2022-11-21T12:37:44.284Z,1.60
2022-11-21T12:40:28.135Z,1.70
2022-11-21T12:43:09.103Z,1.60
2022-11-21T12:45:39.004Z,1.70
2022-11-21T12:48:35.174Z,1.70
2022-11-21T12:51:44.217Z,1.70
2022-11-21T12:54:31.815Z,1.70
2022-11-21T12:57:06.595Z,1.70
2022-11-21T12:59:44.452Z,1.70
2022-11-21T13:02:25.773Z,1.70
2022-11-21T13:04:55.562Z,1.80
2022-11-21T13:07:24.717Z,1.80
2022-11-21T13:09:56.440Z,1.70
2022-11-21T13:12:31.101Z,1.70
2022-11-21T13:15:09.429Z,1.70
2022-11-21T13:17:45.497Z,1.70
2022-11-21T13:20:22.957Z,1.70
2022-11-21T13:22:53.023Z,1.70
2022-11-21T13:25:47.710Z,1.70
2022-11-21T13:28:33.435Z,1.70
2022-11-21T13:31:03.072Z,1.60
2022-11-21T13:33:48.605Z,1.60
2022-11-21T13:36:38.858Z,1.60
2022-11-21T13:39:35.004Z,1.50
2022-11-21T13:42:32.583Z,1.50
2022-11-21T13:45:21.119Z,1.50
2022-11-21T13:48:19.237Z,1.50
2022-11-21T13:51:25.580Z,1.40
2022-11-21T13:54:47.162Z,1.40
2022-11-21T13:57:37.221Z,1.30
2022-11-21T14:00:34.279Z,1.30
2022-11-21T14:03:19.460Z,1.30
2022-11-21T14:06:11.205Z,1.20
2022-11-21T14:08:38.969Z,1.20
2022-11-21T14:11:21.201Z,1.20
2022-11-21T14:13:51.280Z,1.10
2022-11-21T14:16:29.236Z,1.10
2022-11-21T14:18:59.435Z,1.10
2022-11-21T14:21:29.349Z,1.00
2022-11-21T14:23:59.390Z,1.00
2022-11-21T14:26:29.447Z,0.90
2022-11-21T14:29:18.003Z,0.90
2022-11-21T14:31:47.346Z,0.90
2022-11-21T14:34:25.797Z,0.80
2022-11-21T14:36:55.111Z,0.80
2022-11-21T14:39:37.247Z,0.70
2022-11-21T14:42:13.493Z,0.70
2022-11-21T14:44:42.609Z,0.60
2022-11-21T14:47:19.775Z,0.50
2022-11-21T14:49:54.473Z,0.50
2022-11-21T14:52:27.007Z,0.40
2022-11-21T14:57:45.975Z,0.30
2022-11-21T15:00:51.384Z,0.20
2022-11-21T15:03:05.861Z,0.20
2022-11-21T15:11:12.906Z,0.00
2022-11-21T15:14:06.776Z,0.00
2022-11-21T15:16:30.452Z,0.00
2022-11-21T15:18:58.356Z,-0.10
2022-11-21T15:21:26.092Z,-0.10
2022-11-21T15:23:56.722Z,-0.20
2022-11-21T15:26:30.703Z,-0.20
2022-11-21T15:29:00.683Z,-0.30
2022-11-21T15:31:30.195Z,-0.30
2022-11-21T15:34:33.169Z,-0.40
2022-11-21T15:37:04.446Z,-0.40
2022-11-21T15:39:33.639Z,-0.50
2022-11-21T15:42:28.578Z,-0.50
2022-11-21T15:45:02.535Z,-0.50
2022-11-21T15:47:31.679Z,-0.60
2022-11-21T15:49:59.385Z,-0.60
2022-11-21T15:52:27.214Z,-0.60
2022-11-21T15:54:54.917Z,-0.70
2022-11-21T15:57:22.833Z,-0.70
2022-11-21T15:59:50.882Z,-0.70
2022-11-21T16:02:18.654Z,-0.70
2022-11-21T16:04:47.707Z,-0.70
2022-11-21T16:07:15.543Z,-0.80
2022-11-21T16:09:44.773Z,-0.80
2022-11-21T16:12:12.507Z,-0.80
2022-11-21T16:14:40.240Z,-0.90
2022-11-21T16:17:09.257Z,-0.90
2022-11-21T16:19:37.106Z,-0.90
2022-11-21T16:22:06.168Z,-0.90
2022-11-21T16:24:33.959Z,-1.00
2022-11-21T16:27:02.365Z,-1.00
2022-11-21T16:29:30.632Z,-1.00
2022-11-21T16:31:58.616Z,-1.00
2022-11-21T16:34:27.377Z,-1.00
2022-11-21T16:36:56.176Z,-1.00
2022-11-21T16:39:25.186Z,-1.00
2022-11-21T16:41:52.942Z,-1.00
2022-11-21T16:44:20.643Z,-1.00
2022-11-21T16:46:51.502Z,-1.10
2022-11-21T16:49:20.163Z,-1.00
2022-11-21T16:51:47.935Z,-1.10
2022-11-21T16:54:16.302Z,-1.10
2022-11-21T16:56:45.388Z,-1.10
2022-11-21T16:59:13.437Z,-1.10
2022-11-21T17:01:41.235Z,-1.00
2022-11-21T17:04:15.632Z,-1.00
2022-11-21T17:06:45.336Z,-1.00
2022-11-21T17:09:13.061Z,-1.00
2022-11-21T17:11:40.794Z,-1.00
2022-11-21T17:14:12.880Z,-1.00
2022-11-21T17:16:41.514Z,-1.00
2022-11-21T17:19:12.437Z,-1.00
2022-11-21T17:21:40.166Z,-1.00
2022-11-21T17:24:08.141Z,-1.00
2022-11-21T17:26:38.376Z,-1.00
2022-11-21T17:29:06.232Z,-1.10
2022-11-21T17:31:35.574Z,-1.10
2022-11-21T17:34:03.346Z,-1.10
2022-11-21T17:36:34.382Z,-1.10
2022-11-21T17:39:02.390Z,-1.10
2022-11-21T17:41:30.129Z,-1.10
2022-11-21T17:44:00.958Z,-1.10
2022-11-21T17:46:29.019Z,-1.20
2022-11-21T17:48:59.376Z,-1.20
2022-11-21T17:51:29.419Z,-1.10
2022-11-21T17:53:57.728Z,-1.10
2022-11-21T17:56:27.585Z,-1.20
2022-11-21T17:58:56.350Z,-1.20
2022-11-21T18:01:24.379Z,-1.20
2022-11-21T18:03:56.483Z,-1.20
2022-11-21T18:06:26.490Z,-1.30
2022-11-21T18:08:54.423Z,-1.30
2022-11-21T18:11:22.876Z,-1.30
2022-11-21T18:13:51.623Z,-1.30
2022-11-21T18:16:21.490Z,-1.30
2022-11-21T18:18:50.033Z,-1.30
2022-11-21T18:21:20.532Z,-1.40
2022-11-21T18:23:49.705Z,-1.40
2022-11-21T18:26:20.489Z,-1.40
2022-11-21T18:28:57.266Z,-1.40
2022-11-21T18:31:37.065Z,-1.40
2022-11-21T18:34:06.553Z,-1.40
2022-11-21T18:36:34.678Z,-1.50
2022-11-21T18:39:10.559Z,-1.50
2022-11-21T18:41:41.935Z,-1.50
2022-11-21T18:44:10.171Z,-1.50
2022-11-21T18:46:39.288Z,-1.50
2022-11-21T18:49:08.501Z,-1.60
2022-11-21T18:51:37.286Z,-1.50
2022-11-21T18:54:09.542Z,-1.60
2022-11-21T18:56:38.214Z,-1.50
2022-11-21T18:59:06.763Z,-1.50
2022-11-21T19:01:36.124Z,-1.50
2022-11-21T19:04:04.246Z,-1.60
2022-11-21T19:06:32.696Z,-1.60
2022-11-21T19:09:00.460Z,-1.60
2022-11-21T19:11:31.356Z,-1.60
2022-11-21T19:14:00.549Z,-1.60
2022-11-21T19:16:30.943Z,-1.60
2022-11-21T19:19:32.562Z,-1.60
2022-11-21T19:21:47.578Z,-1.60
2022-11-21T19:24:16.051Z,-1.60
2022-11-21T19:26:45.151Z,-1.60
2022-11-21T19:29:12.928Z,-1.60
2022-11-21T19:31:45.222Z,-1.60
2022-11-21T19:34:14.405Z,-1.60
2022-11-21T19:36:42.630Z,-1.60
2022-11-21T19:39:10.968Z,-1.60
2022-11-21T19:41:38.917Z,-1.60
2022-11-21T19:44:08.164Z,-1.60
2022-11-21T19:46:38.751Z,-1.60
2022-11-21T19:49:07.334Z,-1.60
2022-11-21T19:51:36.856Z,-1.60
2022-11-21T19:54:05.618Z,-1.60
2022-11-21T19:56:33.401Z,-1.60
2022-11-21T19:59:01.324Z,-1.60
2022-11-21T20:01:31.823Z,-1.60
2022-11-21T20:04:01.280Z,-1.60
2022-11-21T20:06:30.757Z,-1.60
2022-11-21T20:08:59.929Z,-1.60
2022-11-21T20:11:28.964Z,-1.60
2022-11-21T20:13:57.292Z,-1.60
2022-11-21T20:16:27.127Z,-1.60
2022-11-21T20:18:58.737Z,-1.60
2022-11-21T20:21:27.150Z,-1.60
2022-11-21T20:23:55.476Z,-1.60
2022-11-21T20:26:24.535Z,-1.60
2022-11-21T20:28:53.205Z,-1.70
2022-11-21T20:31:22.454Z,-1.60
2022-11-21T20:33:51.765Z,-1.70
2022-11-21T20:36:23.598Z,-1.70
2022-11-21T20:38:52.481Z,-1.70
2022-11-21T20:41:20.463Z,-1.70
2022-11-21T20:46:36.385Z,-1.70
2022-11-21T20:49:04.128Z,-1.70
2022-11-21T20:54:21.009Z,-1.70
2022-11-21T20:56:48.789Z,-1.70
2022-11-21T20:59:16.698Z,-1.70
2022-11-21T21:01:44.599Z,-1.70
2022-11-21T21:04:12.441Z,-1.80
2022-11-21T21:06:41.504Z,-1.70
2022-11-21T21:09:09.267Z,-1.80
2022-11-21T21:11:51.355Z,-1.70
2022-11-21T21:14:20.150Z,-1.70
2022-11-21T21:16:47.976Z,-1.80
2022-11-21T21:19:16.172Z,-1.70
2022-11-21T21:21:45.710Z,-1.80
2022-11-21T21:24:14.100Z,-1.70
2022-11-21T21:26:43.875Z,-1.70
2022-11-21T21:29:12.880Z,-1.80
2022-11-21T21:31:44.054Z,-1.80
2022-11-21T21:34:13.253Z,-1.80
2022-11-21T21:36:41.194Z,-1.80
2022-11-21T21:39:10.336Z,-1.80
2022-11-21T21:41:39.831Z,-1.80
2022-11-21T21:44:07.991Z,-1.80
2022-11-21T21:46:35.759Z,-1.80
2022-11-21T21:49:03.888Z,-1.80
2022-11-21T21:51:32.302Z,-1.80
2022-11-21T21:54:01.116Z,-1.70
2022-11-21T21:56:30.541Z,-1.70
2022-11-21T21:58:59.440Z,-1.70
2022-11-21T22:01:30.065Z,-1.70
2022-11-21T22:03:59.239Z,-1.60
2022-11-21T22:06:27.816Z,-1.60
2022-11-21T22:08:56.633Z,-1.60
2022-11-21T22:11:25.788Z,-1.50
2022-11-21T22:13:56.676Z,-1.50
2022-11-21T22:16:25.351Z,-1.50
2022-11-21T22:18:53.352Z,-1.40
2022-11-21T22:21:23.644Z,-1.40
2022-11-21T22:26:40.089Z,-1.30
2022-11-21T22:29:09.172Z,-1.30
2022-11-21T22:31:37.463Z,-1.30
2022-11-21T22:34:05.232Z,-1.20
2022-11-21T22:36:33.326Z,-1.20
2022-11-21T22:39:01.112Z,-1.20
2022-11-21T22:41:29.268Z,-1.20
2022-11-21T22:43:59.443Z,-1.20
2022-11-21T22:46:30.190Z,-1.10
2022-11-21T22:48:59.113Z,-1.10
2022-11-21T22:51:29.142Z,-1.20
2022-11-21T22:53:59.622Z,-1.10
2022-11-21T22:56:27.838Z,-1.10
2022-11-21T22:58:58.779Z,-1.10
2022-11-21T23:01:28.847Z,-1.10
2022-11-21T23:03:58.746Z,-1.10
2022-11-21T23:06:30.459Z,-1.10
2022-11-21T23:08:58.842Z,-1.10
2022-11-21T23:11:28.424Z,-1.10
2022-11-21T23:13:57.503Z,-1.00
2022-11-21T23:16:25.954Z,-1.00
2022-11-21T23:18:59.093Z,-1.00
2022-11-21T23:21:26.845Z,-1.00
2022-11-21T23:24:00.178Z,-1.00
2022-11-21T23:26:27.841Z,-1.00
2022-11-21T23:28:55.576Z,-1.00
2022-11-21T23:31:23.324Z,-1.00
2022-11-21T23:33:51.013Z,-1.00
2022-11-21T23:36:20.070Z,-0.90
2022-11-21T23:38:47.777Z,-0.90
2022-11-21T23:41:15.651Z,-0.90
2022-11-21T23:43:43.364Z,-0.90
2022-11-21T23:46:11.088Z,-0.90
2022-11-21T23:48:38.848Z,-0.90
2022-11-21T23:51:06.668Z,-0.90
2022-11-21T23:53:35.720Z,-0.90
2022-11-21T23:56:03.597Z,-0.90
2022-11-21T23:58:31.433Z,-0.90
